sensor_id;sensor_type;location;lat;lon;timestamp;temperature;humidity
37410;DHT22;23275;48.914;12.566;2023-05-10T00:00:33;12.80;99.90
37410;DHT22;23275;48.914;12.566;2023-05-10T00:02:58;12.80;99.90
37410;DHT22;23275;48.914;12.566;2023-05-10T00:05:24;12.80;99.90
37410;DHT22;23275;48.914;12.566;2023-05-10T00:07:49;12.80;99.90
37410;DHT22;23275;48.914;12.566;2023-05-10T00:10:15;12.80;99.90
37410;DHT22;23275;48.914;12.566;2023-05-10T00:12:40;12.70;99.90
37410;DHT22;23275;48.914;12.566;2023-05-10T00:15:06;12.70;99.90
37410;DHT22;23275;48.914;12.566;2023-05-10T00:17:31;12.80;99.90
37410;DHT22;23275;48.914;12.566;2023-05-10T00:19:57;12.80;99.90
37410;DHT22;23275;48.914;12.566;2023-05-10T00:22:22;12.80;99.90
37410;DHT22;23275;48.914;12.566;2023-05-10T00:24:48;12.80;99.90
37410;DHT22;23275;48.914;12.566;2023-05-10T00:27:13;12.80;99.90
37410;DHT22;23275;48.914;12.566;2023-05-10T00:29:39;12.90;99.90
37410;DHT22;23275;48.914;12.566;2023-05-10T00:32:05;12.90;99.90
37410;DHT22;23275;48.914;12.566;2023-05-10T00:34:31;12.90;99.90
37410;DHT22;23275;48.914;12.566;2023-05-10T00:36:56;12.80;99.90
37410;DHT22;23275;48.914;12.566;2023-05-10T00:39:22;12.80;99.90
37410;DHT22;23275;48.914;12.566;2023-05-10T00:41:47;12.80;99.90
37410;DHT22;23275;48.914;12.566;2023-05-10T00:44:12;12.70;99.90
37410;DHT22;23275;48.914;12.566;2023-05-10T00:46:38;12.70;99.90
37410;DHT22;23275;48.914;12.566;2023-05-10T00:49:03;12.70;99.90
37410;DHT22;23275;48.914;12.566;2023-05-10T00:51:29;12.70;99.90
37410;DHT22;23275;48.914;12.566;2023-05-10T00:53:56;12.60;99.90
37410;DHT22;23275;48.914;12.566;2023-05-10T00:56:21;12.60;99.90
37410;DHT22;23275;48.914;12.566;2023-05-10T00:58:48;12.60;99.90
37410;DHT22;23275;48.914;12.566;2023-05-10T01:01:14;12.70;99.90
37410;DHT22;23275;48.914;12.566;2023-05-10T01:03:39;12.70;99.90
37410;DHT22;23275;48.914;12.566;2023-05-10T01:06:05;12.70;99.90
37410;DHT22;23275;48.914;12.566;2023-05-10T01:08:31;12.60;99.90
37410;DHT22;23275;48.914;12.566;2023-05-10T01:10:56;12.70;99.90
37410;DHT22;23275;48.914;12.566;2023-05-10T01:13:35;12.70;99.90
37410;DHT22;23275;48.914;12.566;2023-05-10T01:16:02;12.70;99.90
37410;DHT22;23275;48.914;12.566;2023-05-10T01:18:31;12.70;99.90
37410;DHT22;23275;48.914;12.566;2023-05-10T01:21:11;12.60;99.90
37410;DHT22;23275;48.914;12.566;2023-05-10T01:34:02;12.40;99.90
37410;DHT22;23275;48.914;12.566;2023-05-10T01:36:32;12.50;99.90
37410;DHT22;23275;48.914;12.566;2023-05-10T01:49:34;12.60;99.90
37410;DHT22;23275;48.914;12.566;2023-05-10T01:52:01;12.50;99.90
37410;DHT22;23275;48.914;12.566;2023-05-10T01:54:29;12.60;99.90
37410;DHT22;23275;48.914;12.566;2023-05-10T01:56:55;12.60;99.90
37410;DHT22;23275;48.914;12.566;2023-05-10T01:59:23;12.70;99.90
37410;DHT22;23275;48.914;12.566;2023-05-10T02:01:53;12.70;99.90
37410;DHT22;23275;48.914;12.566;2023-05-10T02:04:19;12.80;99.90
37410;DHT22;23275;48.914;12.566;2023-05-10T02:06:47;12.70;99.90
37410;DHT22;23275;48.914;12.566;2023-05-10T02:09:13;12.70;99.90
37410;DHT22;23275;48.914;12.566;2023-05-10T02:11:41;12.70;99.90
37410;DHT22;23275;48.914;12.566;2023-05-10T02:14:08;12.70;99.90
37410;DHT22;23275;48.914;12.566;2023-05-10T02:16:34;12.60;99.90
37410;DHT22;23275;48.914;12.566;2023-05-10T02:19:00;12.60;99.90
37410;DHT22;23275;48.914;12.566;2023-05-10T02:21:26;12.60;99.90
37410;DHT22;23275;48.914;12.566;2023-05-10T02:23:53;12.60;99.90
37410;DHT22;23275;48.914;12.566;2023-05-10T02:26:19;12.60;99.90
37410;DHT22;23275;48.914;12.566;2023-05-10T02:28:46;12.60;99.90
37410;DHT22;23275;48.914;12.566;2023-05-10T02:31:12;12.60;99.90
37410;DHT22;23275;48.914;12.566;2023-05-10T02:33:38;12.60;99.90
37410;DHT22;23275;48.914;12.566;2023-05-10T02:36:04;12.60;99.90
37410;DHT22;23275;48.914;12.566;2023-05-10T02:38:30;12.60;99.90
37410;DHT22;23275;48.914;12.566;2023-05-10T02:40:57;12.60;99.90
37410;DHT22;23275;48.914;12.566;2023-05-10T02:43:24;12.60;99.90
37410;DHT22;23275;48.914;12.566;2023-05-10T02:45:49;12.60;99.90
37410;DHT22;23275;48.914;12.566;2023-05-10T02:48:15;12.60;99.90
37410;DHT22;23275;48.914;12.566;2023-05-10T02:50:42;12.50;99.90
37410;DHT22;23275;48.914;12.566;2023-05-10T02:53:15;12.50;99.90
37410;DHT22;23275;48.914;12.566;2023-05-10T02:55:45;12.50;99.90
37410;DHT22;23275;48.914;12.566;2023-05-10T02:58:13;12.40;99.90
37410;DHT22;23275;48.914;12.566;2023-05-10T03:00:38;12.40;99.90
37410;DHT22;23275;48.914;12.566;2023-05-10T03:03:04;12.40;99.90
37410;DHT22;23275;48.914;12.566;2023-05-10T03:05:29;12.40;99.90
37410;DHT22;23275;48.914;12.566;2023-05-10T03:07:54;12.40;99.90
37410;DHT22;23275;48.914;12.566;2023-05-10T03:10:21;12.30;99.90
37410;DHT22;23275;48.914;12.566;2023-05-10T03:18:04;12.30;99.90
37410;DHT22;23275;48.914;12.566;2023-05-10T03:20:55;12.30;99.90
37410;DHT22;23275;48.914;12.566;2023-05-10T03:25:43;12.30;99.90
37410;DHT22;23275;48.914;12.566;2023-05-10T03:28:09;12.30;99.90
37410;DHT22;23275;48.914;12.566;2023-05-10T03:30:34;12.30;99.90
37410;DHT22;23275;48.914;12.566;2023-05-10T03:33:04;12.20;99.90
37410;DHT22;23275;48.914;12.566;2023-05-10T03:35:29;12.10;99.90
37410;DHT22;23275;48.914;12.566;2023-05-10T03:37:55;12.10;99.90
37410;DHT22;23275;48.914;12.566;2023-05-10T03:40:20;12.10;99.90
37410;DHT22;23275;48.914;12.566;2023-05-10T03:42:46;12.10;99.90
37410;DHT22;23275;48.914;12.566;2023-05-10T03:45:11;12.00;99.90
37410;DHT22;23275;48.914;12.566;2023-05-10T03:47:37;12.00;99.90
37410;DHT22;23275;48.914;12.566;2023-05-10T03:50:02;11.90;99.90
37410;DHT22;23275;48.914;12.566;2023-05-10T03:52:28;11.90;99.90
37410;DHT22;23275;48.914;12.566;2023-05-10T03:54:53;11.80;99.90
37410;DHT22;23275;48.914;12.566;2023-05-10T03:57:19;11.90;99.90
37410;DHT22;23275;48.914;12.566;2023-05-10T03:59:44;11.90;99.90
37410;DHT22;23275;48.914;12.566;2023-05-10T04:02:10;11.80;99.90
37410;DHT22;23275;48.914;12.566;2023-05-10T04:04:36;11.80;99.90
37410;DHT22;23275;48.914;12.566;2023-05-10T04:07:01;11.70;99.90
37410;DHT22;23275;48.914;12.566;2023-05-10T04:09:27;11.70;99.90
37410;DHT22;23275;48.914;12.566;2023-05-10T04:11:52;11.70;99.90
37410;DHT22;23275;48.914;12.566;2023-05-10T04:14:17;11.70;99.90
37410;DHT22;23275;48.914;12.566;2023-05-10T04:16:43;11.70;99.90
37410;DHT22;23275;48.914;12.566;2023-05-10T04:19:08;11.70;99.90
37410;DHT22;23275;48.914;12.566;2023-05-10T04:21:34;11.60;99.90
37410;DHT22;23275;48.914;12.566;2023-05-10T04:23:59;11.60;99.90
37410;DHT22;23275;48.914;12.566;2023-05-10T04:26:25;11.60;99.90
37410;DHT22;23275;48.914;12.566;2023-05-10T04:28:50;11.60;99.90
37410;DHT22;23275;48.914;12.566;2023-05-10T04:31:16;11.50;99.90
37410;DHT22;23275;48.914;12.566;2023-05-10T04:33:42;11.50;99.90
37410;DHT22;23275;48.914;12.566;2023-05-10T04:36:07;11.50;99.90
37410;DHT22;23275;48.914;12.566;2023-05-10T04:38:33;11.50;99.90
37410;DHT22;23275;48.914;12.566;2023-05-10T04:41:08;11.40;99.90
37410;DHT22;23275;48.914;12.566;2023-05-10T04:43:34;11.40;99.90
37410;DHT22;23275;48.914;12.566;2023-05-10T04:46:00;11.30;99.90
37410;DHT22;23275;48.914;12.566;2023-05-10T04:48:25;11.20;99.90
37410;DHT22;23275;48.914;12.566;2023-05-10T04:50:51;11.10;99.90
37410;DHT22;23275;48.914;12.566;2023-05-10T04:53:16;11.10;99.90
37410;DHT22;23275;48.914;12.566;2023-05-10T04:55:42;11.00;99.90
37410;DHT22;23275;48.914;12.566;2023-05-10T04:58:07;10.90;99.90
37410;DHT22;23275;48.914;12.566;2023-05-10T05:00:33;10.90;99.90
37410;DHT22;23275;48.914;12.566;2023-05-10T05:02:58;10.90;99.90
37410;DHT22;23275;48.914;12.566;2023-05-10T05:05:24;10.90;99.90
37410;DHT22;23275;48.914;12.566;2023-05-10T05:07:49;10.90;99.90
37410;DHT22;23275;48.914;12.566;2023-05-10T05:10:15;10.90;99.90
37410;DHT22;23275;48.914;12.566;2023-05-10T05:12:41;10.90;99.90
37410;DHT22;23275;48.914;12.566;2023-05-10T05:15:06;10.90;99.90
37410;DHT22;23275;48.914;12.566;2023-05-10T05:17:34;11.00;99.90
37410;DHT22;23275;48.914;12.566;2023-05-10T05:19:59;11.00;99.90
37410;DHT22;23275;48.914;12.566;2023-05-10T05:22:25;11.10;99.90
37410;DHT22;23275;48.914;12.566;2023-05-10T05:24:56;11.10;99.90
37410;DHT22;23275;48.914;12.566;2023-05-10T05:27:22;11.10;99.90
37410;DHT22;23275;48.914;12.566;2023-05-10T05:29:50;11.10;99.90
37410;DHT22;23275;48.914;12.566;2023-05-10T05:32:16;11.10;99.90
37410;DHT22;23275;48.914;12.566;2023-05-10T05:34:41;11.10;99.90
37410;DHT22;23275;48.914;12.566;2023-05-10T05:37:07;11.00;99.90
37410;DHT22;23275;48.914;12.566;2023-05-10T05:39:32;11.10;99.90
37410;DHT22;23275;48.914;12.566;2023-05-10T05:41:58;11.10;99.90
37410;DHT22;23275;48.914;12.566;2023-05-10T05:44:23;11.10;99.90
37410;DHT22;23275;48.914;12.566;2023-05-10T05:46:49;11.10;99.90
37410;DHT22;23275;48.914;12.566;2023-05-10T05:49:14;11.20;99.90
37410;DHT22;23275;48.914;12.566;2023-05-10T05:51:40;11.20;99.90
37410;DHT22;23275;48.914;12.566;2023-05-10T05:54:05;11.20;99.90
37410;DHT22;23275;48.914;12.566;2023-05-10T05:56:31;11.30;99.90
37410;DHT22;23275;48.914;12.566;2023-05-10T05:58:57;11.30;99.90
37410;DHT22;23275;48.914;12.566;2023-05-10T06:01:22;11.30;99.90
37410;DHT22;23275;48.914;12.566;2023-05-10T06:03:48;11.30;99.90
37410;DHT22;23275;48.914;12.566;2023-05-10T06:06:13;11.40;99.90
37410;DHT22;23275;48.914;12.566;2023-05-10T06:08:38;11.50;99.90
37410;DHT22;23275;48.914;12.566;2023-05-10T06:11:04;11.50;99.90
37410;DHT22;23275;48.914;12.566;2023-05-10T06:13:29;11.60;99.90
37410;DHT22;23275;48.914;12.566;2023-05-10T06:16:00;11.60;99.90
37410;DHT22;23275;48.914;12.566;2023-05-10T06:18:26;11.60;99.90
37410;DHT22;23275;48.914;12.566;2023-05-10T06:20:51;11.60;99.90
37410;DHT22;23275;48.914;12.566;2023-05-10T06:23:17;11.60;99.90
37410;DHT22;23275;48.914;12.566;2023-05-10T06:25:43;11.50;99.90
37410;DHT22;23275;48.914;12.566;2023-05-10T06:28:08;11.40;99.90
37410;DHT22;23275;48.914;12.566;2023-05-10T06:30:35;11.40;99.90
37410;DHT22;23275;48.914;12.566;2023-05-10T06:33:01;11.40;99.90
37410;DHT22;23275;48.914;12.566;2023-05-10T06:35:26;11.40;99.90
37410;DHT22;23275;48.914;12.566;2023-05-10T06:37:51;11.40;99.90
37410;DHT22;23275;48.914;12.566;2023-05-10T06:40:17;11.30;99.90
37410;DHT22;23275;48.914;12.566;2023-05-10T06:42:43;11.30;99.90
37410;DHT22;23275;48.914;12.566;2023-05-10T06:45:10;11.40;99.90
37410;DHT22;23275;48.914;12.566;2023-05-10T06:47:36;11.40;99.90
37410;DHT22;23275;48.914;12.566;2023-05-10T06:50:01;11.50;99.90
37410;DHT22;23275;48.914;12.566;2023-05-10T06:52:27;11.50;99.90
37410;DHT22;23275;48.914;12.566;2023-05-10T06:54:52;11.50;99.90
37410;DHT22;23275;48.914;12.566;2023-05-10T06:57:17;11.50;99.90
37410;DHT22;23275;48.914;12.566;2023-05-10T06:59:43;11.50;99.90
37410;DHT22;23275;48.914;12.566;2023-05-10T07:02:08;11.50;99.90
37410;DHT22;23275;48.914;12.566;2023-05-10T07:04:34;11.60;99.90
37410;DHT22;23275;48.914;12.566;2023-05-10T07:06:59;11.70;99.90
37410;DHT22;23275;48.914;12.566;2023-05-10T07:09:25;11.80;99.90
37410;DHT22;23275;48.914;12.566;2023-05-10T07:11:50;11.80;99.90
37410;DHT22;23275;48.914;12.566;2023-05-10T07:14:16;11.90;99.90
37410;DHT22;23275;48.914;12.566;2023-05-10T07:16:41;11.90;99.90
37410;DHT22;23275;48.914;12.566;2023-05-10T07:19:07;11.90;99.90
37410;DHT22;23275;48.914;12.566;2023-05-10T07:21:32;12.00;99.90
37410;DHT22;23275;48.914;12.566;2023-05-10T07:23:58;12.00;99.90
37410;DHT22;23275;48.914;12.566;2023-05-10T07:26:24;12.00;99.90
37410;DHT22;23275;48.914;12.566;2023-05-10T07:28:50;11.90;99.90
37410;DHT22;23275;48.914;12.566;2023-05-10T07:31:15;12.00;99.90
37410;DHT22;23275;48.914;12.566;2023-05-10T07:33:41;12.00;99.90
37410;DHT22;23275;48.914;12.566;2023-05-10T07:36:06;12.00;99.90
37410;DHT22;23275;48.914;12.566;2023-05-10T07:38:32;12.00;99.90
37410;DHT22;23275;48.914;12.566;2023-05-10T07:40:57;12.00;99.90
37410;DHT22;23275;48.914;12.566;2023-05-10T07:43:23;12.10;99.90
37410;DHT22;23275;48.914;12.566;2023-05-10T07:45:48;12.00;99.90
37410;DHT22;23275;48.914;12.566;2023-05-10T07:48:14;12.10;99.90
37410;DHT22;23275;48.914;12.566;2023-05-10T07:50:39;12.30;99.90
37410;DHT22;23275;48.914;12.566;2023-05-10T07:53:05;12.30;99.90
37410;DHT22;23275;48.914;12.566;2023-05-10T07:55:30;12.40;99.90
37410;DHT22;23275;48.914;12.566;2023-05-10T07:57:56;12.50;99.90
37410;DHT22;23275;48.914;12.566;2023-05-10T08:00:22;12.50;99.90
37410;DHT22;23275;48.914;12.566;2023-05-10T08:02:47;12.50;99.90
37410;DHT22;23275;48.914;12.566;2023-05-10T08:05:13;12.60;99.90
37410;DHT22;23275;48.914;12.566;2023-05-10T08:07:38;12.60;99.90
37410;DHT22;23275;48.914;12.566;2023-05-10T08:10:04;12.70;99.90
37410;DHT22;23275;48.914;12.566;2023-05-10T08:12:30;12.80;99.90
37410;DHT22;23275;48.914;12.566;2023-05-10T08:14:55;12.90;99.90
37410;DHT22;23275;48.914;12.566;2023-05-10T08:17:21;13.10;99.90
37410;DHT22;23275;48.914;12.566;2023-05-10T08:19:46;13.20;99.90
37410;DHT22;23275;48.914;12.566;2023-05-10T08:22:12;13.10;99.90
37410;DHT22;23275;48.914;12.566;2023-05-10T08:24:37;13.10;99.90
37410;DHT22;23275;48.914;12.566;2023-05-10T08:27:04;13.10;99.90
37410;DHT22;23275;48.914;12.566;2023-05-10T08:29:30;13.20;99.90
37410;DHT22;23275;48.914;12.566;2023-05-10T08:31:56;13.20;99.90
37410;DHT22;23275;48.914;12.566;2023-05-10T08:34:21;13.20;99.90
37410;DHT22;23275;48.914;12.566;2023-05-10T08:36:46;13.30;99.90
37410;DHT22;23275;48.914;12.566;2023-05-10T08:39:12;13.30;99.90
37410;DHT22;23275;48.914;12.566;2023-05-10T08:41:39;13.40;99.90
37410;DHT22;23275;48.914;12.566;2023-05-10T08:44:05;13.50;99.90
37410;DHT22;23275;48.914;12.566;2023-05-10T08:46:33;13.40;99.90
37410;DHT22;23275;48.914;12.566;2023-05-10T08:49:00;13.40;99.90
37410;DHT22;23275;48.914;12.566;2023-05-10T08:51:27;13.40;99.90
37410;DHT22;23275;48.914;12.566;2023-05-10T08:53:53;13.30;99.90
37410;DHT22;23275;48.914;12.566;2023-05-10T08:56:19;13.30;99.90
37410;DHT22;23275;48.914;12.566;2023-05-10T08:58:45;13.40;99.90
37410;DHT22;23275;48.914;12.566;2023-05-10T09:01:11;13.50;99.90
37410;DHT22;23275;48.914;12.566;2023-05-10T09:03:40;13.70;99.90
37410;DHT22;23275;48.914;12.566;2023-05-10T09:06:06;14.00;99.90
37410;DHT22;23275;48.914;12.566;2023-05-10T09:08:32;14.10;99.90
37410;DHT22;23275;48.914;12.566;2023-05-10T09:10:57;14.30;99.90
37410;DHT22;23275;48.914;12.566;2023-05-10T09:13:23;14.50;99.90
37410;DHT22;23275;48.914;12.566;2023-05-10T09:15:49;14.60;99.90
37410;DHT22;23275;48.914;12.566;2023-05-10T09:18:16;14.80;99.90
37410;DHT22;23275;48.914;12.566;2023-05-10T09:20:41;14.90;99.90
37410;DHT22;23275;48.914;12.566;2023-05-10T09:23:07;15.10;99.90
37410;DHT22;23275;48.914;12.566;2023-05-10T09:25:33;15.40;99.90
37410;DHT22;23275;48.914;12.566;2023-05-10T09:27:58;15.60;99.90
37410;DHT22;23275;48.914;12.566;2023-05-10T09:30:25;15.70;99.90
37410;DHT22;23275;48.914;12.566;2023-05-10T09:32:51;16.00;99.90
37410;DHT22;23275;48.914;12.566;2023-05-10T09:35:18;16.10;99.90
37410;DHT22;23275;48.914;12.566;2023-05-10T09:37:45;16.00;99.90
37410;DHT22;23275;48.914;12.566;2023-05-10T09:40:12;16.00;99.90
37410;DHT22;23275;48.914;12.566;2023-05-10T09:42:38;16.10;99.90
37410;DHT22;23275;48.914;12.566;2023-05-10T09:45:03;16.30;99.90
37410;DHT22;23275;48.914;12.566;2023-05-10T09:47:31;16.30;99.90
37410;DHT22;23275;48.914;12.566;2023-05-10T09:49:57;16.40;99.90
37410;DHT22;23275;48.914;12.566;2023-05-10T09:52:28;16.30;99.90
37410;DHT22;23275;48.914;12.566;2023-05-10T09:54:54;16.30;99.90
37410;DHT22;23275;48.914;12.566;2023-05-10T09:57:20;16.40;99.90
37410;DHT22;23275;48.914;12.566;2023-05-10T09:59:47;16.50;99.90
37410;DHT22;23275;48.914;12.566;2023-05-10T10:02:12;16.60;99.90
37410;DHT22;23275;48.914;12.566;2023-05-10T10:04:41;16.60;99.90
37410;DHT22;23275;48.914;12.566;2023-05-10T10:07:07;16.70;99.90
37410;DHT22;23275;48.914;12.566;2023-05-10T10:09:33;16.80;99.90
37410;DHT22;23275;48.914;12.566;2023-05-10T10:11:59;17.00;99.90
37410;DHT22;23275;48.914;12.566;2023-05-10T10:14:25;17.10;99.90
37410;DHT22;23275;48.914;12.566;2023-05-10T10:16:50;17.30;99.90
37410;DHT22;23275;48.914;12.566;2023-05-10T10:19:17;17.40;99.90
37410;DHT22;23275;48.914;12.566;2023-05-10T10:21:43;17.40;99.90
37410;DHT22;23275;48.914;12.566;2023-05-10T10:24:08;17.50;99.90
37410;DHT22;23275;48.914;12.566;2023-05-10T10:26:34;17.70;99.90
37410;DHT22;23275;48.914;12.566;2023-05-10T10:31:46;18.00;99.90
37410;DHT22;23275;48.914;12.566;2023-05-10T10:34:28;18.00;99.90
37410;DHT22;23275;48.914;12.566;2023-05-10T10:36:54;17.90;99.90
37410;DHT22;23275;48.914;12.566;2023-05-10T10:39:19;18.10;99.90
37410;DHT22;23275;48.914;12.566;2023-05-10T10:41:49;18.00;99.90
37410;DHT22;23275;48.914;12.566;2023-05-10T10:49:31;18.50;99.90
37410;DHT22;23275;48.914;12.566;2023-05-10T10:52:13;18.70;99.90
37410;DHT22;23275;48.914;12.566;2023-05-10T10:54:39;18.90;99.90
37410;DHT22;23275;48.914;12.566;2023-05-10T10:57:13;19.00;99.90
37410;DHT22;23275;48.914;12.566;2023-05-10T10:59:42;19.10;99.90
37410;DHT22;23275;48.914;12.566;2023-05-10T11:02:09;19.30;99.90
37410;DHT22;23275;48.914;12.566;2023-05-10T11:04:41;19.60;99.90
37410;DHT22;23275;48.914;12.566;2023-05-10T11:07:17;19.70;99.90
37410;DHT22;23275;48.914;12.566;2023-05-10T11:09:43;19.70;99.90
37410;DHT22;23275;48.914;12.566;2023-05-10T11:12:08;19.30;99.90
37410;DHT22;23275;48.914;12.566;2023-05-10T11:14:34;19.10;99.90
37410;DHT22;23275;48.914;12.566;2023-05-10T11:17:00;18.90;99.90
37410;DHT22;23275;48.914;12.566;2023-05-10T11:19:27;18.90;99.90
37410;DHT22;23275;48.914;12.566;2023-05-10T11:24:30;18.50;99.90
37410;DHT22;23275;48.914;12.566;2023-05-10T11:27:12;18.10;99.90
37410;DHT22;23275;48.914;12.566;2023-05-10T11:29:38;17.70;99.90
37410;DHT22;23275;48.914;12.566;2023-05-10T11:32:04;17.60;99.90
37410;DHT22;23275;48.914;12.566;2023-05-10T11:34:33;17.50;99.90
37410;DHT22;23275;48.914;12.566;2023-05-10T11:36:59;17.40;99.90
37410;DHT22;23275;48.914;12.566;2023-05-10T11:39:31;17.40;99.90
37410;DHT22;23275;48.914;12.566;2023-05-10T11:41:57;17.50;99.90
37410;DHT22;23275;48.914;12.566;2023-05-10T11:44:23;17.50;99.90
37410;DHT22;23275;48.914;12.566;2023-05-10T11:46:48;17.60;99.90
37410;DHT22;23275;48.914;12.566;2023-05-10T11:49:14;17.60;99.90
37410;DHT22;23275;48.914;12.566;2023-05-10T11:51:40;17.60;99.90
37410;DHT22;23275;48.914;12.566;2023-05-10T11:54:08;17.80;99.90
37410;DHT22;23275;48.914;12.566;2023-05-10T11:56:34;18.10;99.90
37410;DHT22;23275;48.914;12.566;2023-05-10T11:59:00;18.40;99.90
37410;DHT22;23275;48.914;12.566;2023-05-10T12:01:27;18.60;99.90
37410;DHT22;23275;48.914;12.566;2023-05-10T12:03:53;18.70;99.90
37410;DHT22;23275;48.914;12.566;2023-05-10T12:06:20;18.70;99.90
37410;DHT22;23275;48.914;12.566;2023-05-10T12:08:46;18.50;99.90
37410;DHT22;23275;48.914;12.566;2023-05-10T12:11:12;18.60;99.90
37410;DHT22;23275;48.914;12.566;2023-05-10T12:13:40;18.70;99.90
37410;DHT22;23275;48.914;12.566;2023-05-10T12:16:28;18.70;99.90
37410;DHT22;23275;48.914;12.566;2023-05-10T12:18:51;18.90;99.90
37410;DHT22;23275;48.914;12.566;2023-05-10T12:21:18;18.90;99.90
37410;DHT22;23275;48.914;12.566;2023-05-10T12:23:45;19.00;99.90
37410;DHT22;23275;48.914;12.566;2023-05-10T12:26:11;18.80;99.90
37410;DHT22;23275;48.914;12.566;2023-05-10T12:28:36;18.80;99.90
37410;DHT22;23275;48.914;12.566;2023-05-10T12:31:02;18.80;99.90
37410;DHT22;23275;48.914;12.566;2023-05-10T12:33:35;19.00;99.90
37410;DHT22;23275;48.914;12.566;2023-05-10T12:36:00;19.10;99.90
37410;DHT22;23275;48.914;12.566;2023-05-10T12:38:28;19.20;99.90
37410;DHT22;23275;48.914;12.566;2023-05-10T12:40:55;19.30;99.90
37410;DHT22;23275;48.914;12.566;2023-05-10T12:43:21;19.40;99.90
37410;DHT22;23275;48.914;12.566;2023-05-10T12:45:46;19.30;99.90
37410;DHT22;23275;48.914;12.566;2023-05-10T12:48:14;19.40;99.90
37410;DHT22;23275;48.914;12.566;2023-05-10T12:50:39;19.50;99.90
37410;DHT22;23275;48.914;12.566;2023-05-10T12:53:05;19.30;99.90
37410;DHT22;23275;48.914;12.566;2023-05-10T12:55:30;18.90;99.90
37410;DHT22;23275;48.914;12.566;2023-05-10T12:57:56;18.80;99.90
37410;DHT22;23275;48.914;12.566;2023-05-10T13:00:21;18.80;99.90
37410;DHT22;23275;48.914;12.566;2023-05-10T13:02:47;18.80;99.90
37410;DHT22;23275;48.914;12.566;2023-05-10T13:05:12;19.10;99.90
37410;DHT22;23275;48.914;12.566;2023-05-10T13:07:38;19.20;99.90
37410;DHT22;23275;48.914;12.566;2023-05-10T13:10:04;19.10;99.90
37410;DHT22;23275;48.914;12.566;2023-05-10T13:12:30;18.90;99.90
37410;DHT22;23275;48.914;12.566;2023-05-10T13:14:56;18.90;99.90
37410;DHT22;23275;48.914;12.566;2023-05-10T13:17:21;18.80;99.90
37410;DHT22;23275;48.914;12.566;2023-05-10T13:19:47;18.80;99.90
37410;DHT22;23275;48.914;12.566;2023-05-10T13:22:12;18.50;99.90
37410;DHT22;23275;48.914;12.566;2023-05-10T13:24:37;18.50;99.90
37410;DHT22;23275;48.914;12.566;2023-05-10T13:27:03;18.50;99.90
37410;DHT22;23275;48.914;12.566;2023-05-10T13:29:28;18.50;99.90
37410;DHT22;23275;48.914;12.566;2023-05-10T13:31:54;18.50;99.90
37410;DHT22;23275;48.914;12.566;2023-05-10T13:34:19;18.30;99.90
37410;DHT22;23275;48.914;12.566;2023-05-10T13:36:49;18.10;99.90
37410;DHT22;23275;48.914;12.566;2023-05-10T13:39:14;17.90;99.90
37410;DHT22;23275;48.914;12.566;2023-05-10T13:41:40;17.90;99.90
37410;DHT22;23275;48.914;12.566;2023-05-10T13:44:06;17.70;99.90
37410;DHT22;23275;48.914;12.566;2023-05-10T13:46:31;17.60;99.90
37410;DHT22;23275;48.914;12.566;2023-05-10T13:48:57;17.50;99.90
37410;DHT22;23275;48.914;12.566;2023-05-10T13:51:22;17.30;99.90
37410;DHT22;23275;48.914;12.566;2023-05-10T13:53:48;17.10;99.90
37410;DHT22;23275;48.914;12.566;2023-05-10T13:56:13;17.00;99.90
37410;DHT22;23275;48.914;12.566;2023-05-10T13:58:39;17.00;99.90
37410;DHT22;23275;48.914;12.566;2023-05-10T14:01:05;17.00;99.90
37410;DHT22;23275;48.914;12.566;2023-05-10T14:03:30;17.00;99.90
37410;DHT22;23275;48.914;12.566;2023-05-10T14:05:56;17.00;99.90
37410;DHT22;23275;48.914;12.566;2023-05-10T14:08:21;16.90;99.90
37410;DHT22;23275;48.914;12.566;2023-05-10T14:10:47;16.80;99.90
37410;DHT22;23275;48.914;12.566;2023-05-10T14:13:13;16.80;99.90
37410;DHT22;23275;48.914;12.566;2023-05-10T14:15:39;16.60;99.90
37410;DHT22;23275;48.914;12.566;2023-05-10T14:18:04;16.60;99.90
37410;DHT22;23275;48.914;12.566;2023-05-10T14:20:30;16.40;99.90
37410;DHT22;23275;48.914;12.566;2023-05-10T14:22:57;16.30;99.90
37410;DHT22;23275;48.914;12.566;2023-05-10T14:25:22;16.20;99.90
37410;DHT22;23275;48.914;12.566;2023-05-10T14:27:48;16.10;99.90
37410;DHT22;23275;48.914;12.566;2023-05-10T14:30:13;16.00;99.90
37410;DHT22;23275;48.914;12.566;2023-05-10T14:32:40;15.80;99.90
37410;DHT22;23275;48.914;12.566;2023-05-10T14:35:05;15.50;99.90
37410;DHT22;23275;48.914;12.566;2023-05-10T14:37:31;15.10;99.90
37410;DHT22;23275;48.914;12.566;2023-05-10T14:39:57;14.90;99.90
37410;DHT22;23275;48.914;12.566;2023-05-10T14:42:23;14.80;99.90
37410;DHT22;23275;48.914;12.566;2023-05-10T14:44:48;14.70;99.90
37410;DHT22;23275;48.914;12.566;2023-05-10T14:47:14;14.60;99.90
37410;DHT22;23275;48.914;12.566;2023-05-10T14:49:39;14.60;99.90
37410;DHT22;23275;48.914;12.566;2023-05-10T14:52:06;14.50;99.90
37410;DHT22;23275;48.914;12.566;2023-05-10T14:54:31;14.50;99.90
37410;DHT22;23275;48.914;12.566;2023-05-10T14:56:58;14.50;99.90
37410;DHT22;23275;48.914;12.566;2023-05-10T14:59:24;14.40;99.90
37410;DHT22;23275;48.914;12.566;2023-05-10T15:01:49;14.40;99.90
37410;DHT22;23275;48.914;12.566;2023-05-10T15:04:15;14.20;99.90
37410;DHT22;23275;48.914;12.566;2023-05-10T15:06:42;14.20;99.90
37410;DHT22;23275;48.914;12.566;2023-05-10T15:09:07;14.10;99.90
37410;DHT22;23275;48.914;12.566;2023-05-10T15:11:32;14.00;99.90
37410;DHT22;23275;48.914;12.566;2023-05-10T15:13:58;14.00;99.90
37410;DHT22;23275;48.914;12.566;2023-05-10T15:16:24;14.00;99.90
37410;DHT22;23275;48.914;12.566;2023-05-10T15:18:49;14.00;99.90
37410;DHT22;23275;48.914;12.566;2023-05-10T15:21:15;14.00;99.90
37410;DHT22;23275;48.914;12.566;2023-05-10T15:23:41;14.00;99.90
37410;DHT22;23275;48.914;12.566;2023-05-10T15:26:06;14.00;99.90
37410;DHT22;23275;48.914;12.566;2023-05-10T15:28:32;14.10;99.90
37410;DHT22;23275;48.914;12.566;2023-05-10T15:30:57;14.10;99.90
37410;DHT22;23275;48.914;12.566;2023-05-10T15:33:23;14.20;99.90
37410;DHT22;23275;48.914;12.566;2023-05-10T15:35:49;14.20;99.90
37410;DHT22;23275;48.914;12.566;2023-05-10T15:38:15;14.20;99.90
37410;DHT22;23275;48.914;12.566;2023-05-10T15:40:40;14.20;99.90
37410;DHT22;23275;48.914;12.566;2023-05-10T15:43:06;14.10;99.90
37410;DHT22;23275;48.914;12.566;2023-05-10T15:45:31;14.10;99.90
37410;DHT22;23275;48.914;12.566;2023-05-10T15:47:57;14.20;99.90